Arkadelphia, Alabama
Current Conditions -  °F | °C
As of 4:55 PM on Wednesday 22 Oct 2014 (Local Time) from KJFX Reporting Station
Clear Clear  
Wind Chill: 70°   Ceiling: Unl
Heat Index: 70°   Visibility: 10mi
Dew Point: 43°   Wind: 8mph
Humidity: 38%   Direction: 40°NE
Pressure: 30.13"   Gusts: NA
Location:  33.9511°N, 87.0046°W
Report Text: KJFX 222155Z AUTO 04007KT 10SM CLR 21/06 A3013 RMK A02 P-128
Loading
Personal Weather Stations






























Interactive Weather Map New forecast layout! Learn more

10-Day Weather Forecast

Advertisements
Track Severe Weather on mobile